sensor_id;sensor_type;location;lat;lon;timestamp;P1;durP1;ratioP1;P2;durP2;ratioP2
3891;SDS011;1961;48.194;16.370;2023-06-26T00:00:20;46.20;;;10.27;;
3891;SDS011;1961;48.194;16.370;2023-06-26T00:02:46;47.10;;;11.00;;
3891;SDS011;1961;48.194;16.370;2023-06-26T00:05:12;47.70;;;10.73;;
3891;SDS011;1961;48.194;16.370;2023-06-26T00:07:39;47.70;;;11.13;;
3891;SDS011;1961;48.194;16.370;2023-06-26T00:10:05;51.60;;;11.30;;
3891;SDS011;1961;48.194;16.370;2023-06-26T00:12:32;46.40;;;10.90;;
3891;SDS011;1961;48.194;16.370;2023-06-26T00:14:58;49.13;;;10.97;;
3891;SDS011;1961;48.194;16.370;2023-06-26T00:17:25;50.37;;;11.27;;
3891;SDS011;1961;48.194;16.370;2023-06-26T00:19:51;49.70;;;10.97;;
3891;SDS011;1961;48.194;16.370;2023-06-26T00:22:18;46.70;;;11.20;;
3891;SDS011;1961;48.194;16.370;2023-06-26T00:24:44;48.23;;;10.30;;
3891;SDS011;1961;48.194;16.370;2023-06-26T00:27:10;46.60;;;10.53;;
3891;SDS011;1961;48.194;16.370;2023-06-26T00:29:36;46.83;;;11.07;;
3891;SDS011;1961;48.194;16.370;2023-06-26T00:32:04;46.87;;;10.40;;
3891;SDS011;1961;48.194;16.370;2023-06-26T00:34:30;47.70;;;10.70;;
3891;SDS011;1961;48.194;16.370;2023-06-26T00:36:56;52.93;;;11.23;;
3891;SDS011;1961;48.194;16.370;2023-06-26T00:39:22;47.50;;;10.27;;
3891;SDS011;1961;48.194;16.370;2023-06-26T00:41:51;49.60;;;11.00;;
3891;SDS011;1961;48.194;16.370;2023-06-26T00:44:19;47.80;;;10.67;;
3891;SDS011;1961;48.194;16.370;2023-06-26T00:46:45;48.20;;;11.03;;
3891;SDS011;1961;48.194;16.370;2023-06-26T00:49:11;47.60;;;10.60;;
3891;SDS011;1961;48.194;16.370;2023-06-26T00:51:38;46.43;;;9.70;;
3891;SDS011;1961;48.194;16.370;2023-06-26T00:54:04;46.87;;;10.50;;
3891;SDS011;1961;48.194;16.370;2023-06-26T00:56:31;46.67;;;9.80;;
3891;SDS011;1961;48.194;16.370;2023-06-26T00:58:57;46.87;;;9.70;;
3891;SDS011;1961;48.194;16.370;2023-06-26T01:01:24;47.37;;;10.30;;
3891;SDS011;1961;48.194;16.370;2023-06-26T01:03:51;48.87;;;10.57;;
3891;SDS011;1961;48.194;16.370;2023-06-26T01:06:18;47.07;;;11.03;;
3891;SDS011;1961;48.194;16.370;2023-06-26T01:08:45;45.60;;;9.80;;
3891;SDS011;1961;48.194;16.370;2023-06-26T01:11:12;47.50;;;10.43;;
3891;SDS011;1961;48.194;16.370;2023-06-26T01:13:38;47.80;;;10.70;;
3891;SDS011;1961;48.194;16.370;2023-06-26T01:16:05;51.37;;;10.30;;
3891;SDS011;1961;48.194;16.370;2023-06-26T01:18:32;46.20;;;9.90;;
3891;SDS011;1961;48.194;16.370;2023-06-26T01:20:58;48.20;;;11.17;;
3891;SDS011;1961;48.194;16.370;2023-06-26T01:23:29;49.73;;;10.30;;
3891;SDS011;1961;48.194;16.370;2023-06-26T01:31:03;46.47;;;10.27;;
3891;SDS011;1961;48.194;16.370;2023-06-26T01:33:30;46.87;;;10.43;;
3891;SDS011;1961;48.194;16.370;2023-06-26T01:35:57;46.57;;;10.23;;
3891;SDS011;1961;48.194;16.370;2023-06-26T01:38:23;60.20;;;12.60;;
3891;SDS011;1961;48.194;16.370;2023-06-26T01:40:51;45.53;;;9.90;;
3891;SDS011;1961;48.194;16.370;2023-06-26T01:43:24;47.13;;;10.50;;
3891;SDS011;1961;48.194;16.370;2023-06-26T01:45:53;46.80;;;10.30;;
3891;SDS011;1961;48.194;16.370;2023-06-26T01:48:23;46.10;;;9.87;;
3891;SDS011;1961;48.194;16.370;2023-06-26T01:50:50;49.63;;;10.73;;
3891;SDS011;1961;48.194;16.370;2023-06-26T01:53:17;48.27;;;10.23;;
3891;SDS011;1961;48.194;16.370;2023-06-26T01:55:46;46.33;;;9.83;;
3891;SDS011;1961;48.194;16.370;2023-06-26T01:58:13;47.00;;;10.33;;
3891;SDS011;1961;48.194;16.370;2023-06-26T02:00:41;46.47;;;10.57;;
3891;SDS011;1961;48.194;16.370;2023-06-26T02:03:08;46.50;;;10.97;;
3891;SDS011;1961;48.194;16.370;2023-06-26T02:05:35;45.67;;;9.67;;
3891;SDS011;1961;48.194;16.370;2023-06-26T02:08:01;49.60;;;11.40;;
3891;SDS011;1961;48.194;16.370;2023-06-26T02:10:28;46.03;;;10.47;;
3891;SDS011;1961;48.194;16.370;2023-06-26T02:12:55;46.50;;;10.47;;
3891;SDS011;1961;48.194;16.370;2023-06-26T02:15:21;49.83;;;10.70;;
3891;SDS011;1961;48.194;16.370;2023-06-26T02:17:47;45.30;;;9.60;;
3891;SDS011;1961;48.194;16.370;2023-06-26T02:20:14;45.80;;;10.07;;
3891;SDS011;1961;48.194;16.370;2023-06-26T02:22:40;46.07;;;10.27;;
3891;SDS011;1961;48.194;16.370;2023-06-26T02:25:07;46.67;;;9.27;;
3891;SDS011;1961;48.194;16.370;2023-06-26T02:27:34;47.30;;;10.17;;
3891;SDS011;1961;48.194;16.370;2023-06-26T02:30:00;48.10;;;10.37;;
3891;SDS011;1961;48.194;16.370;2023-06-26T02:32:26;53.63;;;9.77;;
3891;SDS011;1961;48.194;16.370;2023-06-26T02:34:52;45.60;;;9.23;;
3891;SDS011;1961;48.194;16.370;2023-06-26T02:37:19;46.83;;;9.70;;
3891;SDS011;1961;48.194;16.370;2023-06-26T02:39:45;46.40;;;9.80;;
3891;SDS011;1961;48.194;16.370;2023-06-26T02:42:11;49.23;;;10.40;;
3891;SDS011;1961;48.194;16.370;2023-06-26T02:44:38;47.40;;;10.50;;
3891;SDS011;1961;48.194;16.370;2023-06-26T02:47:04;46.97;;;9.80;;
3891;SDS011;1961;48.194;16.370;2023-06-26T02:49:30;47.90;;;10.60;;
3891;SDS011;1961;48.194;16.370;2023-06-26T02:51:56;49.53;;;10.83;;
3891;SDS011;1961;48.194;16.370;2023-06-26T02:54:22;48.73;;;10.50;;
3891;SDS011;1961;48.194;16.370;2023-06-26T02:56:49;47.07;;;10.83;;
3891;SDS011;1961;48.194;16.370;2023-06-26T02:59:15;46.17;;;10.13;;
3891;SDS011;1961;48.194;16.370;2023-06-26T03:01:41;49.40;;;10.20;;
3891;SDS011;1961;48.194;16.370;2023-06-26T03:04:07;47.70;;;10.07;;
3891;SDS011;1961;48.194;16.370;2023-06-26T03:06:34;49.40;;;11.17;;
3891;SDS011;1961;48.194;16.370;2023-06-26T03:09:00;47.83;;;10.13;;
3891;SDS011;1961;48.194;16.370;2023-06-26T03:11:27;49.00;;;10.80;;
3891;SDS011;1961;48.194;16.370;2023-06-26T03:13:54;47.73;;;10.47;;
3891;SDS011;1961;48.194;16.370;2023-06-26T03:16:21;48.10;;;10.40;;
3891;SDS011;1961;48.194;16.370;2023-06-26T03:18:47;46.30;;;10.37;;
3891;SDS011;1961;48.194;16.370;2023-06-26T03:21:13;49.10;;;10.73;;
3891;SDS011;1961;48.194;16.370;2023-06-26T03:23:39;48.60;;;10.70;;
3891;SDS011;1961;48.194;16.370;2023-06-26T03:26:05;46.77;;;10.30;;
3891;SDS011;1961;48.194;16.370;2023-06-26T03:28:32;46.10;;;10.60;;
3891;SDS011;1961;48.194;16.370;2023-06-26T03:30:58;47.93;;;10.83;;
3891;SDS011;1961;48.194;16.370;2023-06-26T03:33:24;47.00;;;10.60;;
3891;SDS011;1961;48.194;16.370;2023-06-26T03:35:50;45.67;;;10.30;;
3891;SDS011;1961;48.194;16.370;2023-06-26T03:38:16;45.93;;;9.90;;
3891;SDS011;1961;48.194;16.370;2023-06-26T03:40:42;47.03;;;10.10;;
3891;SDS011;1961;48.194;16.370;2023-06-26T03:43:09;49.20;;;11.43;;
3891;SDS011;1961;48.194;16.370;2023-06-26T03:45:35;46.23;;;10.20;;
3891;SDS011;1961;48.194;16.370;2023-06-26T03:48:01;46.73;;;10.03;;
3891;SDS011;1961;48.194;16.370;2023-06-26T03:50:27;48.90;;;10.50;;
3891;SDS011;1961;48.194;16.370;2023-06-26T03:52:54;48.80;;;10.47;;
3891;SDS011;1961;48.194;16.370;2023-06-26T03:55:21;47.70;;;10.60;;
3891;SDS011;1961;48.194;16.370;2023-06-26T03:57:48;47.63;;;11.20;;
3891;SDS011;1961;48.194;16.370;2023-06-26T04:00:14;46.47;;;10.40;;
3891;SDS011;1961;48.194;16.370;2023-06-26T04:02:41;48.40;;;10.70;;
3891;SDS011;1961;48.194;16.370;2023-06-26T04:05:07;49.20;;;10.70;;
3891;SDS011;1961;48.194;16.370;2023-06-26T04:07:33;48.33;;;10.50;;
3891;SDS011;1961;48.194;16.370;2023-06-26T04:10:01;47.60;;;10.80;;
3891;SDS011;1961;48.194;16.370;2023-06-26T04:12:27;47.23;;;10.40;;
3891;SDS011;1961;48.194;16.370;2023-06-26T04:14:53;46.60;;;10.07;;
3891;SDS011;1961;48.194;16.370;2023-06-26T04:17:20;48.27;;;10.97;;
3891;SDS011;1961;48.194;16.370;2023-06-26T04:19:47;48.20;;;10.77;;
3891;SDS011;1961;48.194;16.370;2023-06-26T04:22:13;48.60;;;11.07;;
3891;SDS011;1961;48.194;16.370;2023-06-26T04:24:39;46.77;;;10.80;;
3891;SDS011;1961;48.194;16.370;2023-06-26T04:27:05;48.10;;;11.40;;
3891;SDS011;1961;48.194;16.370;2023-06-26T04:29:31;48.07;;;10.80;;
3891;SDS011;1961;48.194;16.370;2023-06-26T04:31:57;49.20;;;10.93;;
3891;SDS011;1961;48.194;16.370;2023-06-26T04:34:24;46.97;;;11.00;;
3891;SDS011;1961;48.194;16.370;2023-06-26T04:36:50;48.27;;;10.50;;
3891;SDS011;1961;48.194;16.370;2023-06-26T04:39:17;49.23;;;11.23;;
3891;SDS011;1961;48.194;16.370;2023-06-26T04:41:44;49.73;;;10.70;;
3891;SDS011;1961;48.194;16.370;2023-06-26T04:44:10;50.10;;;11.87;;
3891;SDS011;1961;48.194;16.370;2023-06-26T04:46:37;48.40;;;11.07;;
3891;SDS011;1961;48.194;16.370;2023-06-26T04:49:07;47.33;;;11.40;;
3891;SDS011;1961;48.194;16.370;2023-06-26T04:51:33;53.27;;;12.33;;
3891;SDS011;1961;48.194;16.370;2023-06-26T04:54:06;49.90;;;11.13;;
3891;SDS011;1961;48.194;16.370;2023-06-26T04:56:33;48.53;;;12.57;;
3891;SDS011;1961;48.194;16.370;2023-06-26T04:58:59;51.67;;;12.53;;
3891;SDS011;1961;48.194;16.370;2023-06-26T05:01:25;50.27;;;11.40;;
3891;SDS011;1961;48.194;16.370;2023-06-26T05:03:57;49.20;;;11.77;;
3891;SDS011;1961;48.194;16.370;2023-06-26T05:06:24;47.77;;;11.40;;
3891;SDS011;1961;48.194;16.370;2023-06-26T05:08:50;49.20;;;12.70;;
3891;SDS011;1961;48.194;16.370;2023-06-26T05:11:16;55.47;;;12.63;;
3891;SDS011;1961;48.194;16.370;2023-06-26T05:13:42;50.73;;;12.87;;
3891;SDS011;1961;48.194;16.370;2023-06-26T05:16:09;51.97;;;12.50;;
3891;SDS011;1961;48.194;16.370;2023-06-26T05:18:36;53.97;;;12.40;;
3891;SDS011;1961;48.194;16.370;2023-06-26T05:21:03;50.10;;;12.97;;
3891;SDS011;1961;48.194;16.370;2023-06-26T05:23:33;48.80;;;12.20;;
3891;SDS011;1961;48.194;16.370;2023-06-26T05:26:02;52.00;;;12.97;;
3891;SDS011;1961;48.194;16.370;2023-06-26T05:28:28;55.30;;;12.90;;
3891;SDS011;1961;48.194;16.370;2023-06-26T05:30:57;53.67;;;14.00;;
3891;SDS011;1961;48.194;16.370;2023-06-26T05:33:24;48.23;;;12.00;;
3891;SDS011;1961;48.194;16.370;2023-06-26T05:35:54;48.90;;;12.77;;
3891;SDS011;1961;48.194;16.370;2023-06-26T05:38:20;49.40;;;12.17;;
3891;SDS011;1961;48.194;16.370;2023-06-26T05:40:47;53.73;;;13.83;;
3891;SDS011;1961;48.194;16.370;2023-06-26T05:43:13;54.10;;;13.43;;
3891;SDS011;1961;48.194;16.370;2023-06-26T05:45:39;48.97;;;11.37;;
3891;SDS011;1961;48.194;16.370;2023-06-26T05:48:06;48.23;;;9.03;;
3891;SDS011;1961;48.194;16.370;2023-06-26T05:50:32;46.77;;;9.10;;
3891;SDS011;1961;48.194;16.370;2023-06-26T05:52:59;43.93;;;8.63;;
3891;SDS011;1961;48.194;16.370;2023-06-26T05:55:28;51.37;;;9.50;;
3891;SDS011;1961;48.194;16.370;2023-06-26T05:57:54;44.40;;;8.60;;
3891;SDS011;1961;48.194;16.370;2023-06-26T06:00:23;45.10;;;8.37;;
3891;SDS011;1961;48.194;16.370;2023-06-26T06:02:50;44.17;;;8.27;;
3891;SDS011;1961;48.194;16.370;2023-06-26T06:05:19;44.27;;;8.47;;
3891;SDS011;1961;48.194;16.370;2023-06-26T06:07:46;46.60;;;8.53;;
3891;SDS011;1961;48.194;16.370;2023-06-26T06:10:13;49.43;;;10.13;;
3891;SDS011;1961;48.194;16.370;2023-06-26T06:12:39;46.17;;;8.60;;
3891;SDS011;1961;48.194;16.370;2023-06-26T06:15:05;43.23;;;7.20;;
3891;SDS011;1961;48.194;16.370;2023-06-26T06:17:32;44.50;;;8.23;;
3891;SDS011;1961;48.194;16.370;2023-06-26T06:19:58;46.57;;;8.80;;
3891;SDS011;1961;48.194;16.370;2023-06-26T06:22:25;44.30;;;7.80;;
3891;SDS011;1961;48.194;16.370;2023-06-26T06:24:51;45.30;;;7.87;;
3891;SDS011;1961;48.194;16.370;2023-06-26T06:27:17;45.77;;;8.27;;
3891;SDS011;1961;48.194;16.370;2023-06-26T06:29:43;44.47;;;8.20;;
3891;SDS011;1961;48.194;16.370;2023-06-26T06:32:10;45.10;;;8.70;;
3891;SDS011;1961;48.194;16.370;2023-06-26T06:34:36;47.90;;;9.80;;
3891;SDS011;1961;48.194;16.370;2023-06-26T06:37:02;43.60;;;7.47;;
3891;SDS011;1961;48.194;16.370;2023-06-26T06:39:29;44.37;;;7.60;;
3891;SDS011;1961;48.194;16.370;2023-06-26T06:41:55;45.83;;;8.87;;
3891;SDS011;1961;48.194;16.370;2023-06-26T06:44:21;45.07;;;8.00;;
3891;SDS011;1961;48.194;16.370;2023-06-26T06:46:47;51.63;;;9.10;;
3891;SDS011;1961;48.194;16.370;2023-06-26T06:49:14;44.67;;;7.60;;
3891;SDS011;1961;48.194;16.370;2023-06-26T06:51:40;46.27;;;8.47;;
3891;SDS011;1961;48.194;16.370;2023-06-26T06:54:06;47.30;;;8.07;;
3891;SDS011;1961;48.194;16.370;2023-06-26T06:56:32;44.77;;;7.40;;
3891;SDS011;1961;48.194;16.370;2023-06-26T06:58:58;45.40;;;8.40;;
3891;SDS011;1961;48.194;16.370;2023-06-26T07:01:25;47.67;;;11.87;;
3891;SDS011;1961;48.194;16.370;2023-06-26T07:03:51;44.47;;;8.50;;
3891;SDS011;1961;48.194;16.370;2023-06-26T07:06:17;45.17;;;8.53;;
3891;SDS011;1961;48.194;16.370;2023-06-26T07:08:43;44.90;;;7.90;;
3891;SDS011;1961;48.194;16.370;2023-06-26T07:11:09;42.80;;;6.70;;
3891;SDS011;1961;48.194;16.370;2023-06-26T07:13:35;44.37;;;7.27;;
3891;SDS011;1961;48.194;16.370;2023-06-26T07:16:02;46.00;;;7.90;;
3891;SDS011;1961;48.194;16.370;2023-06-26T07:18:28;44.57;;;7.73;;
3891;SDS011;1961;48.194;16.370;2023-06-26T07:20:55;44.10;;;7.77;;
3891;SDS011;1961;48.194;16.370;2023-06-26T07:23:21;44.30;;;7.83;;
3891;SDS011;1961;48.194;16.370;2023-06-26T07:25:47;45.30;;;8.30;;
3891;SDS011;1961;48.194;16.370;2023-06-26T07:28:13;44.67;;;8.10;;
3891;SDS011;1961;48.194;16.370;2023-06-26T07:30:39;45.97;;;8.43;;
3891;SDS011;1961;48.194;16.370;2023-06-26T07:33:05;44.37;;;7.67;;
3891;SDS011;1961;48.194;16.370;2023-06-26T07:35:32;43.90;;;7.73;;
3891;SDS011;1961;48.194;16.370;2023-06-26T07:37:59;43.00;;;7.33;;
3891;SDS011;1961;48.194;16.370;2023-06-26T07:40:25;44.67;;;8.40;;
3891;SDS011;1961;48.194;16.370;2023-06-26T07:42:52;44.37;;;8.27;;
3891;SDS011;1961;48.194;16.370;2023-06-26T07:45:19;43.53;;;7.20;;
3891;SDS011;1961;48.194;16.370;2023-06-26T07:47:45;45.00;;;7.80;;
3891;SDS011;1961;48.194;16.370;2023-06-26T07:50:13;42.77;;;7.30;;
3891;SDS011;1961;48.194;16.370;2023-06-26T07:52:44;44.00;;;7.80;;
3891;SDS011;1961;48.194;16.370;2023-06-26T07:55:11;42.97;;;7.03;;
3891;SDS011;1961;48.194;16.370;2023-06-26T07:57:37;43.80;;;7.50;;
3891;SDS011;1961;48.194;16.370;2023-06-26T08:00:03;44.00;;;8.00;;
3891;SDS011;1961;48.194;16.370;2023-06-26T08:02:31;44.90;;;7.90;;
3891;SDS011;1961;48.194;16.370;2023-06-26T08:04:58;44.97;;;8.20;;
3891;SDS011;1961;48.194;16.370;2023-06-26T08:07:24;43.37;;;7.77;;
3891;SDS011;1961;48.194;16.370;2023-06-26T08:09:50;43.47;;;7.30;;
3891;SDS011;1961;48.194;16.370;2023-06-26T08:12:16;44.30;;;8.23;;
3891;SDS011;1961;48.194;16.370;2023-06-26T08:14:43;43.90;;;8.00;;
3891;SDS011;1961;48.194;16.370;2023-06-26T08:17:09;44.13;;;7.90;;
3891;SDS011;1961;48.194;16.370;2023-06-26T08:19:35;43.83;;;8.20;;
3891;SDS011;1961;48.194;16.370;2023-06-26T08:22:02;44.97;;;8.57;;
3891;SDS011;1961;48.194;16.370;2023-06-26T08:24:28;43.77;;;7.57;;
3891;SDS011;1961;48.194;16.370;2023-06-26T08:26:54;45.50;;;9.37;;
3891;SDS011;1961;48.194;16.370;2023-06-26T08:29:20;43.80;;;7.63;;
3891;SDS011;1961;48.194;16.370;2023-06-26T08:31:47;47.97;;;8.40;;
3891;SDS011;1961;48.194;16.370;2023-06-26T08:34:13;47.00;;;8.40;;
3891;SDS011;1961;48.194;16.370;2023-06-26T08:36:39;43.83;;;8.20;;
3891;SDS011;1961;48.194;16.370;2023-06-26T08:39:05;52.20;;;7.80;;
3891;SDS011;1961;48.194;16.370;2023-06-26T08:41:33;46.40;;;8.73;;
3891;SDS011;1961;48.194;16.370;2023-06-26T08:43:59;45.60;;;8.50;;
3891;SDS011;1961;48.194;16.370;2023-06-26T08:46:25;44.77;;;8.93;;
3891;SDS011;1961;48.194;16.370;2023-06-26T08:48:55;45.17;;;8.40;;
3891;SDS011;1961;48.194;16.370;2023-06-26T08:51:23;44.87;;;8.17;;
3891;SDS011;1961;48.194;16.370;2023-06-26T08:54:00;45.00;;;8.07;;
3891;SDS011;1961;48.194;16.370;2023-06-26T08:56:28;43.37;;;7.33;;
3891;SDS011;1961;48.194;16.370;2023-06-26T08:58:54;44.07;;;8.53;;
3891;SDS011;1961;48.194;16.370;2023-06-26T09:01:21;47.73;;;8.60;;
3891;SDS011;1961;48.194;16.370;2023-06-26T09:03:49;43.90;;;8.17;;
3891;SDS011;1961;48.194;16.370;2023-06-26T09:06:15;43.90;;;8.03;;
3891;SDS011;1961;48.194;16.370;2023-06-26T09:08:43;45.60;;;8.40;;
3891;SDS011;1961;48.194;16.370;2023-06-26T09:11:09;44.70;;;8.90;;
3891;SDS011;1961;48.194;16.370;2023-06-26T09:13:35;44.07;;;8.50;;
3891;SDS011;1961;48.194;16.370;2023-06-26T09:16:08;44.20;;;7.80;;
3891;SDS011;1961;48.194;16.370;2023-06-26T09:18:35;45.10;;;9.47;;
3891;SDS011;1961;48.194;16.370;2023-06-26T09:21:08;43.77;;;8.00;;
3891;SDS011;1961;48.194;16.370;2023-06-26T09:23:35;43.93;;;9.10;;
3891;SDS011;1961;48.194;16.370;2023-06-26T09:26:02;43.90;;;8.40;;
3891;SDS011;1961;48.194;16.370;2023-06-26T09:28:29;44.50;;;8.00;;
3891;SDS011;1961;48.194;16.370;2023-06-26T09:30:59;44.23;;;8.63;;
3891;SDS011;1961;48.194;16.370;2023-06-26T09:33:26;44.10;;;8.60;;
3891;SDS011;1961;48.194;16.370;2023-06-26T09:35:52;44.93;;;9.00;;
3891;SDS011;1961;48.194;16.370;2023-06-26T09:38:19;46.67;;;8.67;;
3891;SDS011;1961;48.194;16.370;2023-06-26T09:40:46;45.47;;;9.70;;
3891;SDS011;1961;48.194;16.370;2023-06-26T09:43:13;50.60;;;9.10;;
3891;SDS011;1961;48.194;16.370;2023-06-26T09:45:40;44.30;;;8.50;;
3891;SDS011;1961;48.194;16.370;2023-06-26T09:48:06;45.17;;;9.10;;
3891;SDS011;1961;48.194;16.370;2023-06-26T09:50:37;43.87;;;8.30;;
3891;SDS011;1961;48.194;16.370;2023-06-26T09:53:10;45.97;;;9.80;;
3891;SDS011;1961;48.194;16.370;2023-06-26T09:55:39;44.47;;;9.13;;
3891;SDS011;1961;48.194;16.370;2023-06-26T09:58:12;44.47;;;8.73;;
3891;SDS011;1961;48.194;16.370;2023-06-26T10:00:42;45.97;;;8.67;;
3891;SDS011;1961;48.194;16.370;2023-06-26T10:03:12;54.13;;;9.67;;
3891;SDS011;1961;48.194;16.370;2023-06-26T10:05:38;44.30;;;9.00;;
3891;SDS011;1961;48.194;16.370;2023-06-26T10:08:05;45.20;;;8.20;;
3891;SDS011;1961;48.194;16.370;2023-06-26T10:10:33;43.50;;;7.33;;
3891;SDS011;1961;48.194;16.370;2023-06-26T10:13:01;43.00;;;7.60;;
3891;SDS011;1961;48.194;16.370;2023-06-26T10:15:30;44.60;;;8.23;;
3891;SDS011;1961;48.194;16.370;2023-06-26T10:17:56;43.27;;;8.43;;
3891;SDS011;1961;48.194;16.370;2023-06-26T10:20:22;45.20;;;9.03;;
3891;SDS011;1961;48.194;16.370;2023-06-26T10:22:52;43.77;;;8.57;;
3891;SDS011;1961;48.194;16.370;2023-06-26T10:25:20;44.00;;;8.40;;
3891;SDS011;1961;48.194;16.370;2023-06-26T10:27:49;43.90;;;8.30;;
3891;SDS011;1961;48.194;16.370;2023-06-26T10:30:17;43.27;;;8.03;;
3891;SDS011;1961;48.194;16.370;2023-06-26T10:32:45;47.93;;;8.03;;
3891;SDS011;1961;48.194;16.370;2023-06-26T10:35:11;45.57;;;8.63;;
3891;SDS011;1961;48.194;16.370;2023-06-26T10:37:48;43.50;;;8.00;;
3891;SDS011;1961;48.194;16.370;2023-06-26T10:40:18;44.17;;;8.20;;
3891;SDS011;1961;48.194;16.370;2023-06-26T10:42:47;44.00;;;8.17;;
3891;SDS011;1961;48.194;16.370;2023-06-26T10:45:14;42.60;;;7.33;;
3891;SDS011;1961;48.194;16.370;2023-06-26T10:47:41;44.60;;;7.80;;
3891;SDS011;1961;48.194;16.370;2023-06-26T10:50:24;42.97;;;7.40;;
3891;SDS011;1961;48.194;16.370;2023-06-26T10:53:10;44.10;;;8.33;;
3891;SDS011;1961;48.194;16.370;2023-06-26T10:55:42;43.23;;;7.70;;
3891;SDS011;1961;48.194;16.370;2023-06-26T11:03:40;42.70;;;7.60;;
3891;SDS011;1961;48.194;16.370;2023-06-26T11:06:08;44.60;;;7.80;;
3891;SDS011;1961;48.194;16.370;2023-06-26T11:08:52;43.90;;;8.23;;
3891;SDS011;1961;48.194;16.370;2023-06-26T11:11:22;44.27;;;7.70;;
3891;SDS011;1961;48.194;16.370;2023-06-26T11:14:08;43.23;;;7.83;;
3891;SDS011;1961;48.194;16.370;2023-06-26T11:16:34;43.60;;;7.77;;
3891;SDS011;1961;48.194;16.370;2023-06-26T11:19:01;43.17;;;7.77;;
3891;SDS011;1961;48.194;16.370;2023-06-26T11:21:27;42.47;;;7.47;;
3891;SDS011;1961;48.194;16.370;2023-06-26T11:23:53;43.40;;;7.63;;
3891;SDS011;1961;48.194;16.370;2023-06-26T11:26:23;43.87;;;8.20;;
3891;SDS011;1961;48.194;16.370;2023-06-26T11:28:58;44.67;;;7.70;;
3891;SDS011;1961;48.194;16.370;2023-06-26T11:31:25;42.83;;;7.30;;
3891;SDS011;1961;48.194;16.370;2023-06-26T11:33:52;43.90;;;8.70;;
3891;SDS011;1961;48.194;16.370;2023-06-26T11:36:19;46.73;;;8.93;;
3891;SDS011;1961;48.194;16.370;2023-06-26T11:38:45;43.00;;;7.60;;
3891;SDS011;1961;48.194;16.370;2023-06-26T11:41:16;44.03;;;7.90;;
3891;SDS011;1961;48.194;16.370;2023-06-26T11:43:42;44.17;;;8.43;;
3891;SDS011;1961;48.194;16.370;2023-06-26T11:46:09;43.40;;;8.40;;
3891;SDS011;1961;48.194;16.370;2023-06-26T11:48:35;47.50;;;8.13;;
3891;SDS011;1961;48.194;16.370;2023-06-26T11:51:04;44.37;;;7.70;;
3891;SDS011;1961;48.194;16.370;2023-06-26T11:53:30;44.57;;;7.93;;
3891;SDS011;1961;48.194;16.370;2023-06-26T11:55:56;45.77;;;10.00;;
3891;SDS011;1961;48.194;16.370;2023-06-26T11:58:23;43.87;;;7.70;;
3891;SDS011;1961;48.194;16.370;2023-06-26T12:00:49;45.03;;;8.70;;
3891;SDS011;1961;48.194;16.370;2023-06-26T12:03:15;44.10;;;8.50;;
3891;SDS011;1961;48.194;16.370;2023-06-26T12:05:41;44.17;;;7.80;;
3891;SDS011;1961;48.194;16.370;2023-06-26T12:08:10;43.90;;;7.53;;
3891;SDS011;1961;48.194;16.370;2023-06-26T12:10:37;44.30;;;8.13;;
3891;SDS011;1961;48.194;16.370;2023-06-26T12:13:03;44.87;;;7.83;;
3891;SDS011;1961;48.194;16.370;2023-06-26T12:15:29;43.93;;;7.90;;
3891;SDS011;1961;48.194;16.370;2023-06-26T12:17:56;46.10;;;7.70;;
3891;SDS011;1961;48.194;16.370;2023-06-26T12:20:22;42.60;;;7.40;;
3891;SDS011;1961;48.194;16.370;2023-06-26T12:22:50;43.43;;;8.03;;
3891;SDS011;1961;48.194;16.370;2023-06-26T12:25:23;45.23;;;8.00;;
3891;SDS011;1961;48.194;16.370;2023-06-26T12:27:49;43.40;;;7.77;;
3891;SDS011;1961;48.194;16.370;2023-06-26T12:30:16;43.77;;;7.80;;
3891;SDS011;1961;48.194;16.370;2023-06-26T12:32:45;43.47;;;7.80;;
3891;SDS011;1961;48.194;16.370;2023-06-26T12:35:12;43.70;;;8.17;;
3891;SDS011;1961;48.194;16.370;2023-06-26T12:37:38;43.70;;;7.47;;
3891;SDS011;1961;48.194;16.370;2023-06-26T12:40:17;44.40;;;7.33;;
3891;SDS011;1961;48.194;16.370;2023-06-26T12:42:44;44.03;;;7.60;;
3891;SDS011;1961;48.194;16.370;2023-06-26T12:45:12;43.77;;;7.97;;
3891;SDS011;1961;48.194;16.370;2023-06-26T12:47:39;44.40;;;7.93;;
3891;SDS011;1961;48.194;16.370;2023-06-26T12:50:08;43.23;;;8.10;;
3891;SDS011;1961;48.194;16.370;2023-06-26T12:52:35;44.20;;;7.40;;
3891;SDS011;1961;48.194;16.370;2023-06-26T12:55:01;43.67;;;8.50;;
3891;SDS011;1961;48.194;16.370;2023-06-26T12:57:27;44.10;;;8.33;;
3891;SDS011;1961;48.194;16.370;2023-06-26T12:59:53;45.20;;;8.40;;
3891;SDS011;1961;48.194;16.370;2023-06-26T13:02:20;44.00;;;7.77;;
3891;SDS011;1961;48.194;16.370;2023-06-26T13:04:46;44.10;;;8.70;;
3891;SDS011;1961;48.194;16.370;2023-06-26T13:07:13;45.33;;;8.60;;
3891;SDS011;1961;48.194;16.370;2023-06-26T13:09:39;44.97;;;8.97;;
3891;SDS011;1961;48.194;16.370;2023-06-26T13:12:07;44.70;;;8.87;;
3891;SDS011;1961;48.194;16.370;2023-06-26T13:14:33;45.37;;;8.60;;
3891;SDS011;1961;48.194;16.370;2023-06-26T13:17:00;44.93;;;8.53;;
3891;SDS011;1961;48.194;16.370;2023-06-26T13:19:26;44.80;;;8.40;;
3891;SDS011;1961;48.194;16.370;2023-06-26T13:21:52;46.40;;;9.40;;
3891;SDS011;1961;48.194;16.370;2023-06-26T13:24:19;46.80;;;9.00;;
3891;SDS011;1961;48.194;16.370;2023-06-26T13:26:46;44.67;;;9.40;;
3891;SDS011;1961;48.194;16.370;2023-06-26T13:29:12;43.93;;;8.37;;
3891;SDS011;1961;48.194;16.370;2023-06-26T13:31:38;44.90;;;9.20;;
3891;SDS011;1961;48.194;16.370;2023-06-26T13:34:04;44.30;;;8.17;;
3891;SDS011;1961;48.194;16.370;2023-06-26T13:36:30;50.50;;;8.43;;
3891;SDS011;1961;48.194;16.370;2023-06-26T13:38:59;45.27;;;9.00;;
3891;SDS011;1961;48.194;16.370;2023-06-26T13:41:25;44.37;;;8.50;;
3891;SDS011;1961;48.194;16.370;2023-06-26T13:43:53;46.87;;;9.07;;
3891;SDS011;1961;48.194;16.370;2023-06-26T13:46:20;45.70;;;8.53;;
3891;SDS011;1961;48.194;16.370;2023-06-26T13:48:46;45.90;;;9.17;;
3891;SDS011;1961;48.194;16.370;2023-06-26T13:51:12;44.03;;;8.40;;
3891;SDS011;1961;48.194;16.370;2023-06-26T13:53:39;44.90;;;9.37;;
3891;SDS011;1961;48.194;16.370;2023-06-26T13:56:05;44.67;;;9.60;;
3891;SDS011;1961;48.194;16.370;2023-06-26T13:58:34;44.70;;;8.70;;
3891;SDS011;1961;48.194;16.370;2023-06-26T14:01:01;43.77;;;8.20;;
3891;SDS011;1961;48.194;16.370;2023-06-26T14:03:28;45.77;;;9.70;;
3891;SDS011;1961;48.194;16.370;2023-06-26T14:05:54;45.13;;;9.20;;
3891;SDS011;1961;48.194;16.370;2023-06-26T14:08:20;47.50;;;9.80;;
3891;SDS011;1961;48.194;16.370;2023-06-26T14:10:47;48.20;;;9.30;;
3891;SDS011;1961;48.194;16.370;2023-06-26T14:13:13;45.00;;;9.43;;
3891;SDS011;1961;48.194;16.370;2023-06-26T14:15:41;44.50;;;9.47;;
3891;SDS011;1961;48.194;16.370;2023-06-26T14:18:07;44.50;;;10.03;;
3891;SDS011;1961;48.194;16.370;2023-06-26T14:20:34;52.93;;;10.93;;
3891;SDS011;1961;48.194;16.370;2023-06-26T14:23:01;45.30;;;9.93;;
3891;SDS011;1961;48.194;16.370;2023-06-26T14:25:27;45.40;;;10.20;;
3891;SDS011;1961;48.194;16.370;2023-06-26T14:27:54;45.23;;;9.97;;
3891;SDS011;1961;48.194;16.370;2023-06-26T14:30:21;45.83;;;10.33;;
3891;SDS011;1961;48.194;16.370;2023-06-26T14:32:47;44.83;;;9.80;;
3891;SDS011;1961;48.194;16.370;2023-06-26T14:35:13;47.57;;;9.63;;
3891;SDS011;1961;48.194;16.370;2023-06-26T14:37:40;45.40;;;9.40;;
3891;SDS011;1961;48.194;16.370;2023-06-26T14:40:09;45.40;;;10.00;;
3891;SDS011;1961;48.194;16.370;2023-06-26T14:42:35;46.20;;;10.33;;
3891;SDS011;1961;48.194;16.370;2023-06-26T14:45:02;46.57;;;9.77;;
3891;SDS011;1961;48.194;16.370;2023-06-26T14:47:28;47.10;;;11.30;;
3891;SDS011;1961;48.194;16.370;2023-06-26T14:49:54;46.67;;;11.10;;
3891;SDS011;1961;48.194;16.370;2023-06-26T14:52:20;47.07;;;11.37;;